createdAt,value
2023-02-06T00:03:19.573Z,103575.91
2023-02-06T00:07:31.775Z,103576.99
2023-02-06T00:11:57.598Z,103574.05
2023-02-06T00:16:09.696Z,103575.22
2023-02-06T00:20:21.885Z,103570.73
2023-02-06T00:24:34.138Z,103579.17
2023-02-06T00:28:59.972Z,103575.87
2023-02-06T00:33:12.203Z,103568.02
2023-02-06T00:37:24.181Z,103574.91
2023-02-06T00:41:36.354Z,103573.48
2023-02-06T00:46:02.147Z,103574.31
2023-02-06T00:50:14.178Z,103573.45
2023-02-06T00:54:26.153Z,103574.05
2023-02-06T00:58:38.279Z,103574.76
2023-02-06T01:02:50.638Z,103571.59
2023-02-06T01:07:03.381Z,103561.90
2023-02-06T01:11:15.715Z,103556.44
2023-02-06T01:15:27.541Z,103547.54
2023-02-06T01:19:40.005Z,103546.59
2023-02-06T01:23:52.193Z,103538.52
2023-02-06T01:28:04.777Z,103541.86
2023-02-06T01:32:17.238Z,103541.73
2023-02-06T01:36:29.531Z,103526.81
2023-02-06T01:40:41.601Z,103525.47
2023-02-06T01:44:53.853Z,103522.90
2023-02-06T01:49:18.308Z,103525.21
2023-02-06T01:53:30.600Z,103523.67
2023-02-06T01:57:44.690Z,103521.11
2023-02-06T02:01:56.824Z,103512.14
2023-02-06T02:06:02.008Z,103518.27
2023-02-06T02:10:13.767Z,103510.54
2023-02-06T02:14:25.836Z,103511.41
2023-02-06T02:18:43.909Z,103505.95
2023-02-06T02:22:54.459Z,103496.91
2023-02-06T02:27:04.971Z,103489.77
2023-02-06T02:31:20.378Z,103484.96
2023-02-06T02:35:51.676Z,103477.57
2023-02-06T02:40:09.555Z,103474.39
2023-02-06T02:44:16.036Z,103471.37
2023-02-06T02:48:28.327Z,103471.27
2023-02-06T02:52:54.170Z,103469.84
2023-02-06T02:57:06.159Z,103474.34
2023-02-06T03:01:18.202Z,103466.42
2023-02-06T03:05:36.441Z,103473.42
2023-02-06T03:10:03.596Z,103481.85
2023-02-06T03:14:15.267Z,103486.79
2023-02-06T03:18:27.504Z,103488.88
2023-02-06T03:22:39.568Z,103483.48
2023-02-06T03:26:51.766Z,103486.30
2023-02-06T03:31:04.212Z,103486.62
2023-02-06T03:35:13.917Z,103487.33
2023-02-06T03:39:26.037Z,103495.85
2023-02-06T03:43:32.612Z,103495.02
2023-02-06T03:47:44.570Z,103491.06
2023-02-06T03:52:10.732Z,103494.88
2023-02-06T03:56:22.839Z,103496.83
2023-02-06T04:00:29.796Z,103498.02
2023-02-06T04:04:41.798Z,103498.11
2023-02-06T04:08:53.919Z,103500.41
2023-02-06T04:13:05.651Z,103498.12
2023-02-06T04:17:31.340Z,103491.48
2023-02-06T04:21:48.399Z,103489.44
2023-02-06T04:26:00.431Z,103489.01
2023-02-06T04:30:12.596Z,103482.70
2023-02-06T04:34:24.801Z,103491.85
2023-02-06T04:38:36.435Z,103488.88
2023-02-06T04:42:48.561Z,103486.65
2023-02-06T04:47:01.537Z,103492.86
2023-02-06T04:51:13.776Z,103492.85
2023-02-06T04:55:25.653Z,103488.06
2023-02-06T04:59:32.174Z,103485.86
2023-02-06T05:03:44.337Z,103482.00
2023-02-06T05:07:56.468Z,103482.55
2023-02-06T05:12:08.589Z,103477.11
2023-02-06T05:16:21.125Z,103480.40
2023-02-06T05:20:33.243Z,103480.77
2023-02-06T05:24:45.381Z,103484.90
2023-02-06T05:28:57.309Z,103492.02
2023-02-06T05:33:09.569Z,103501.34
2023-02-06T05:37:21.864Z,103517.30
2023-02-06T05:41:34.207Z,103518.22
2023-02-06T05:45:46.655Z,103529.16
2023-02-06T05:49:53.138Z,103533.08
2023-02-06T05:54:11.584Z,103532.45
2023-02-06T05:58:37.295Z,103530.86
2023-02-06T06:02:49.153Z,103530.46
2023-02-06T06:06:53.674Z,103526.63
2023-02-06T06:11:03.983Z,103533.00
2023-02-06T06:15:16.553Z,103543.11
2023-02-06T06:19:42.765Z,103553.73
2023-02-06T06:23:54.801Z,103560.58
2023-02-06T06:28:07.050Z,103562.11
2023-02-06T06:32:19.131Z,103556.01
2023-02-06T06:36:51.659Z,103561.18
2023-02-06T06:41:03.455Z,103577.09
2023-02-06T06:45:15.282Z,103577.28
2023-02-06T06:49:28.769Z,103580.66
2023-02-06T06:53:42.555Z,103576.93
2023-02-06T06:57:55.136Z,103576.24
2023-02-06T07:02:07.630Z,103577.45
2023-02-06T07:06:19.494Z,103569.68
2023-02-06T07:10:31.571Z,103565.37
2023-02-06T07:14:43.573Z,103578.20
2023-02-06T07:18:55.985Z,103582.16
2023-02-06T07:23:02.641Z,103584.77
2023-02-06T07:27:14.942Z,103588.66
2023-02-06T07:31:27.237Z,103589.75
2023-02-06T07:35:34.590Z,103582.20
2023-02-06T07:40:00.841Z,103583.10
2023-02-06T07:44:13.318Z,103579.39
2023-02-06T07:48:25.434Z,103589.10
2023-02-06T07:52:37.598Z,103595.15
2023-02-06T07:56:50.759Z,103592.15
2023-02-06T08:01:03.216Z,103589.36
2023-02-06T08:05:15.102Z,103588.46
2023-02-06T08:09:27.930Z,103586.98
2023-02-06T08:13:40.377Z,103585.72
2023-02-06T08:17:52.693Z,103590.27
2023-02-06T08:21:59.348Z,103594.23
2023-02-06T08:26:07.433Z,103583.42
2023-02-06T08:30:19.710Z,103588.03
2023-02-06T08:34:46.038Z,103594.94
2023-02-06T08:38:58.021Z,103601.81
2023-02-06T08:43:10.062Z,103609.27
2023-02-06T08:47:21.975Z,103611.23
2023-02-06T08:51:33.972Z,103619.36
2023-02-06T08:55:40.885Z,103619.96
2023-02-06T08:59:52.944Z,103619.41
2023-02-06T09:04:05.422Z,103623.68
2023-02-06T09:08:18.792Z,103618.23
2023-02-06T09:12:31.653Z,103610.44
2023-02-06T09:16:43.618Z,103612.01
2023-02-06T09:20:55.947Z,103615.39
2023-02-06T09:25:09.101Z,103611.47
2023-02-06T09:29:21.142Z,103616.71
2023-02-06T09:33:33.731Z,103626.17
2023-02-06T09:37:45.899Z,103623.87
2023-02-06T09:41:58.232Z,103628.58
2023-02-06T09:46:10.553Z,103629.46
2023-02-06T09:50:23.085Z,103627.09
2023-02-06T09:54:37.846Z,103631.13
2023-02-06T09:59:04.573Z,103639.16
2023-02-06T10:03:15.091Z,103650.98
2023-02-06T10:07:27.565Z,103657.84
2023-02-06T10:11:40.368Z,103650.58
2023-02-06T10:15:52.343Z,103646.09
2023-02-06T10:20:16.719Z,103645.02
2023-02-06T10:24:41.192Z,103654.06
2023-02-06T10:28:53.342Z,103648.77
2023-02-06T10:33:09.711Z,103646.16
2023-02-06T10:37:27.339Z,103655.48
2023-02-06T10:41:53.234Z,103660.23
2023-02-06T10:46:05.821Z,103663.69
2023-02-06T10:50:17.922Z,103666.14
2023-02-06T10:54:31.374Z,103661.95
2023-02-06T10:58:44.034Z,103662.34
2023-02-06T11:03:07.112Z,103658.43
2023-02-06T11:07:20.329Z,103657.17
2023-02-06T11:11:32.593Z,103661.20
2023-02-06T11:15:44.625Z,103665.61
2023-02-06T11:19:56.468Z,103669.55
2023-02-06T11:24:08.566Z,103684.45
2023-02-06T11:28:20.676Z,103686.94
2023-02-06T11:32:33.024Z,103678.89
2023-02-06T11:36:45.462Z,103678.96
2023-02-06T11:41:13.014Z,103671.38
2023-02-06T11:45:25.270Z,103678.21
2023-02-06T11:49:37.266Z,103680.08
2023-02-06T11:53:52.368Z,103676.38
2023-02-06T11:58:04.756Z,103674.71
2023-02-06T12:02:17.257Z,103673.94
2023-02-06T12:06:29.316Z,103665.45
2023-02-06T12:10:40.804Z,103654.86
2023-02-06T12:14:59.137Z,103654.36
2023-02-06T12:19:06.027Z,103655.75
2023-02-06T12:23:21.056Z,103654.30
2023-02-06T12:27:33.166Z,103648.09
2023-02-06T12:31:38.778Z,103639.05
2023-02-06T12:35:54.111Z,103642.17
2023-02-06T12:40:21.121Z,103638.35
2023-02-06T12:44:40.098Z,103638.08
2023-02-06T12:49:05.437Z,103642.52
2023-02-06T12:53:24.301Z,103650.52
2023-02-06T12:57:36.613Z,103644.05
2023-02-06T13:01:42.131Z,103647.27
2023-02-06T13:05:57.569Z,103655.25
2023-02-06T13:10:09.737Z,103659.86
2023-02-06T13:14:14.097Z,103662.42
2023-02-06T13:18:26.590Z,103664.20
2023-02-06T13:22:50.975Z,103667.66
2023-02-06T13:26:57.690Z,103670.13
2023-02-06T13:31:10.016Z,103665.83
2023-02-06T13:35:22.348Z,103673.09
2023-02-06T13:39:34.383Z,103674.45
2023-02-06T13:43:47.575Z,103679.77
2023-02-06T13:47:58.326Z,103695.08
2023-02-06T13:52:10.752Z,103691.80
2023-02-06T13:56:29.995Z,103699.48
2023-02-06T14:00:51.295Z,103702.48
2023-02-06T14:05:03.582Z,103702.90
2023-02-06T14:09:16.288Z,103710.77
2023-02-06T14:13:27.445Z,103712.01
2023-02-06T14:17:37.850Z,103711.39
2023-02-06T14:22:09.351Z,103708.98
2023-02-06T14:26:24.226Z,103707.68
2023-02-06T14:30:34.904Z,103718.45
2023-02-06T14:34:54.182Z,103716.54
2023-02-06T14:39:25.451Z,103710.70
2023-02-06T14:43:37.187Z,103728.90
2023-02-06T14:48:05.153Z,103724.63
2023-02-06T14:52:36.603Z,103726.64
2023-02-06T14:56:46.959Z,103721.89
2023-02-06T15:00:59.182Z,103727.17
2023-02-06T15:05:11.952Z,103723.30
2023-02-06T15:09:30.351Z,103728.44
2023-02-06T15:13:37.314Z,103733.89
2023-02-06T15:17:49.451Z,103738.67
2023-02-06T15:22:01.969Z,103746.45
2023-02-06T15:26:13.803Z,103753.17
2023-02-06T15:30:28.772Z,103760.23
2023-02-06T15:34:59.748Z,103777.95
2023-02-06T15:39:11.223Z,103784.15
2023-02-06T15:43:23.644Z,103790.98
2023-02-06T15:47:30.548Z,103790.17
2023-02-06T15:51:43.214Z,103803.21
2023-02-06T15:56:01.573Z,103805.68
2023-02-06T16:00:13.927Z,103808.06
2023-02-06T16:04:26.946Z,103812.39
2023-02-06T16:08:39.334Z,103806.55
2023-02-06T16:12:52.171Z,103808.06
2023-02-06T16:16:55.030Z,103811.39
2023-02-06T16:21:20.029Z,103818.84
2023-02-06T16:25:32.307Z,103806.06
2023-02-06T16:29:44.325Z,103803.16
2023-02-06T16:33:56.385Z,103807.40
2023-02-06T16:38:22.510Z,103807.56
2023-02-06T16:42:35.037Z,103804.08
2023-02-06T16:46:47.211Z,103798.30
2023-02-06T16:50:57.618Z,103799.69
2023-02-06T16:55:28.961Z,103811.48
2023-02-06T16:59:41.111Z,103816.15
2023-02-06T17:03:53.349Z,103796.52
2023-02-06T17:08:05.950Z,103806.75
2023-02-06T17:12:18.363Z,103813.98
2023-02-06T17:16:30.994Z,103816.86
2023-02-06T17:20:43.511Z,103821.95
2023-02-06T17:25:09.862Z,103824.66
2023-02-06T17:29:22.693Z,103834.23
2023-02-06T17:33:35.521Z,103838.04
2023-02-06T17:38:06.948Z,103836.30
2023-02-06T17:42:18.507Z,103827.45
2023-02-06T17:46:17.924Z,103830.66
2023-02-06T17:50:30.205Z,103830.21
2023-02-06T17:54:42.893Z,103824.45
2023-02-06T17:58:55.483Z,103826.59
2023-02-06T18:03:08.386Z,103842.62
2023-02-06T18:07:20.574Z,103830.20
2023-02-06T18:11:34.689Z,103823.05
2023-02-06T18:15:39.381Z,103833.95
2023-02-06T18:19:46.528Z,103827.73
2023-02-06T18:24:00.240Z,103829.34
2023-02-06T18:28:12.465Z,103821.89
2023-02-06T18:32:24.972Z,103831.64
2023-02-06T18:36:37.974Z,103829.45
2023-02-06T18:40:50.616Z,103823.78
2023-02-06T18:45:04.254Z,103826.68
2023-02-06T18:49:16.981Z,103831.02
2023-02-06T18:53:29.648Z,103830.86
2023-02-06T18:57:34.652Z,103828.59
2023-02-06T19:01:52.884Z,103824.65
2023-02-06T19:06:05.230Z,103821.69
2023-02-06T19:10:18.014Z,103828.83
2023-02-06T19:14:30.286Z,103831.03
2023-02-06T19:18:42.331Z,103826.05
2023-02-06T19:22:55.061Z,103817.65
2023-02-06T19:27:07.280Z,103813.10
2023-02-06T19:31:20.618Z,103820.23
2023-02-06T19:35:33.271Z,103823.34
2023-02-06T19:39:45.655Z,103830.27
2023-02-06T19:43:57.854Z,103827.73
2023-02-06T19:48:29.034Z,103816.75
2023-02-06T19:52:54.738Z,103806.38
2023-02-06T19:57:06.938Z,103803.08
2023-02-06T20:01:12.087Z,103807.27
2023-02-06T20:05:24.766Z,103827.53
2023-02-06T20:09:37.747Z,103830.21
2023-02-06T20:13:49.801Z,103829.60
2023-02-06T20:18:02.151Z,103830.02
2023-02-06T20:22:14.824Z,103832.70
2023-02-06T20:26:27.572Z,103826.95
2023-02-06T20:30:54.758Z,103827.92
2023-02-06T20:35:06.800Z,103824.00
2023-02-06T20:39:32.510Z,103831.60
2023-02-06T20:43:37.121Z,103840.41
2023-02-06T20:47:49.756Z,103846.23
2023-02-06T20:52:02.057Z,103836.02
2023-02-06T20:56:07.058Z,103831.40
2023-02-06T21:00:38.632Z,103829.36
2023-02-06T21:04:50.295Z,103836.27
2023-02-06T21:09:03.313Z,103835.23
2023-02-06T21:13:15.927Z,103827.46
2023-02-06T21:17:28.498Z,103836.29
2023-02-06T21:21:59.774Z,103845.43
2023-02-06T21:26:11.842Z,103848.84
2023-02-06T21:30:24.267Z,103851.39
2023-02-06T21:34:53.330Z,103850.45
2023-02-06T21:39:04.929Z,103851.13
2023-02-06T21:43:16.855Z,103851.62
2023-02-06T21:47:29.077Z,103858.52
2023-02-06T21:56:20.417Z,103862.98
2023-02-06T22:00:32.544Z,103857.46
2023-02-06T22:04:44.072Z,103853.83
2023-02-06T22:08:50.780Z,103858.09
2023-02-06T22:13:02.843Z,103861.33
2023-02-06T22:17:14.922Z,103861.95
2023-02-06T22:21:21.390Z,103838.12
2023-02-06T22:25:33.974Z,103839.48
2023-02-06T22:29:46.058Z,103844.29
2023-02-06T22:33:57.994Z,103843.75
2023-02-06T22:38:10.337Z,103841.80
2023-02-06T22:42:07.645Z,103832.20
2023-02-06T22:46:33.560Z,103833.60
2023-02-06T22:50:59.650Z,103836.46
2023-02-06T22:55:10.858Z,103839.80
2023-02-06T22:59:23.623Z,103850.80
2023-02-06T23:03:35.679Z,103853.56
2023-02-06T23:07:47.864Z,103851.45
2023-02-06T23:12:00.019Z,103851.66
2023-02-06T23:16:12.543Z,103853.55
2023-02-06T23:20:17.069Z,103849.60
2023-02-06T23:24:29.463Z,103855.27
2023-02-06T23:28:41.676Z,103852.23
2023-02-06T23:32:53.966Z,103851.96
2023-02-06T23:37:00.679Z,103862.36
2023-02-06T23:41:15.356Z,103869.90
2023-02-06T23:45:27.367Z,103881.14
2023-02-06T23:49:39.436Z,103880.30
2023-02-06T23:53:51.587Z,103888.69
2023-02-06T23:58:03.993Z,103889.35
